createdAt,value
2023-04-10T00:09:16.872Z,75807.19
2023-04-10T00:19:24.783Z,75827.44
2023-04-10T00:29:31.518Z,75839.56
2023-04-10T00:39:36.145Z,75857.78
2023-04-10T00:49:41.667Z,75861.81
2023-04-10T00:59:44.355Z,75884.09
2023-04-10T01:10:00.566Z,75898.25
2023-04-10T01:20:23.256Z,75912.44
2023-04-10T01:30:25.580Z,75914.44
2023-04-10T01:40:33.243Z,75920.53
2023-04-10T01:50:36.292Z,75896.22
2023-04-10T02:00:43.386Z,75900.28
2023-04-10T02:11:16.184Z,75892.19
2023-04-10T02:21:18.378Z,75900.28
2023-04-10T02:31:25.007Z,75908.38
2023-04-10T02:41:30.053Z,75918.50
2023-04-10T02:51:38.131Z,75926.59
2023-04-10T03:01:42.438Z,75932.66
2023-04-10T03:11:44.687Z,75936.72
2023-04-10T03:21:49.215Z,75948.84
2023-04-10T03:31:56.474Z,75948.84
2023-04-10T03:42:02.305Z,75938.75
2023-04-10T03:52:05.560Z,75936.72
2023-04-10T04:02:11.635Z,75932.66
2023-04-10T04:12:19.839Z,75932.66
2023-04-10T04:22:22.018Z,75904.34
2023-04-10T04:32:46.619Z,75833.50
2023-04-10T04:43:09.100Z,75748.50
2023-04-10T04:53:28.530Z,75703.97
2023-04-10T05:03:57.787Z,75643.25
2023-04-10T05:14:33.759Z,75552.19
2023-04-10T05:24:55.938Z,75438.88
2023-04-10T05:35:11.027Z,75392.31
2023-04-10T05:45:22.346Z,75301.25
2023-04-10T05:55:54.820Z,75244.59
2023-04-10T06:06:18.324Z,75222.34
2023-04-10T06:16:26.998Z,75370.06
2023-04-10T06:26:30.385Z,75301.25
2023-04-10T06:36:35.316Z,75260.78
2023-04-10T06:46:40.848Z,75125.22
2023-04-10T06:56:46.244Z,75032.13
2023-04-10T07:06:51.395Z,75050.34
2023-04-10T07:16:56.058Z,75147.47
2023-04-10T07:27:01.917Z,75084.75
2023-04-10T07:37:04.148Z,74985.59
2023-04-10T07:47:08.346Z,74989.63
2023-04-10T07:57:10.621Z,74932.97
2023-04-10T08:07:12.992Z,74977.50
2023-04-10T08:17:15.578Z,74999.75
2023-04-10T08:27:21.580Z,74947.16
2023-04-10T08:37:26.688Z,74959.28
2023-04-10T08:47:30.338Z,74856.09
2023-04-10T08:57:33.834Z,74843.94
2023-04-10T09:07:39.273Z,74827.75
2023-04-10T09:18:04.936Z,74874.31
2023-04-10T09:28:08.904Z,74839.91
2023-04-10T09:38:17.457Z,74801.47
2023-04-10T09:48:23.531Z,74819.66
2023-04-10T09:58:29.708Z,74805.50
2023-04-10T10:08:33.375Z,74807.53
2023-04-10T10:18:51.127Z,74829.78
2023-04-10T10:28:54.328Z,74843.94
2023-04-10T10:39:27.957Z,74807.53
2023-04-10T10:50:16.118Z,74765.03
2023-04-10T11:00:22.351Z,74783.25
2023-04-10T11:11:05.057Z,74767.06
2023-04-10T11:21:19.313Z,74754.94
2023-04-10T11:31:23.626Z,74724.56
2023-04-10T11:41:33.720Z,74736.72
2023-04-10T11:51:37.758Z,74767.06
2023-04-10T12:01:46.747Z,74710.41
2023-04-10T12:12:04.280Z,74678.03
2023-04-10T12:22:12.295Z,74661.84
2023-04-10T12:32:19.188Z,74629.47
2023-04-10T12:42:23.499Z,74643.66
2023-04-10T12:52:28.233Z,74584.97
2023-04-10T13:02:34.295Z,74609.25
2023-04-10T13:12:38.258Z,74593.06
2023-04-10T13:22:43.653Z,74584.97
2023-04-10T13:32:52.326Z,74609.25
2023-04-10T13:42:54.710Z,74704.34
2023-04-10T13:52:59.080Z,74811.56
2023-04-10T14:03:11.273Z,74815.63
2023-04-10T14:13:14.782Z,74888.47
2023-04-10T14:23:24.061Z,74943.09
2023-04-10T14:33:31.247Z,74941.06
2023-04-10T14:43:35.607Z,75013.91
2023-04-10T14:53:40.613Z,74965.34
2023-04-10T15:03:49.349Z,74989.63
2023-04-10T15:13:54.078Z,74973.44
2023-04-10T15:23:59.184Z,74969.41
2023-04-10T15:34:03.618Z,74965.34
2023-04-10T15:44:05.957Z,74937.03
2023-04-10T15:54:11.293Z,74920.84
2023-04-10T16:04:16.803Z,74904.66
2023-04-10T16:14:19.295Z,74892.50
2023-04-10T16:24:24.327Z,74888.47
2023-04-10T16:34:29.001Z,74878.34
2023-04-10T16:44:32.441Z,74888.47
2023-04-10T16:54:34.950Z,74902.63
2023-04-10T17:04:41.571Z,74924.88
2023-04-10T17:14:48.822Z,74935.00
2023-04-10T17:24:51.031Z,74957.25
2023-04-10T17:34:53.260Z,74955.25
2023-04-10T17:44:58.042Z,74961.31
2023-04-10T17:55:02.337Z,74977.50
2023-04-10T18:05:09.684Z,74989.63
2023-04-10T18:15:12.050Z,75001.78
2023-04-10T18:25:17.053Z,75009.88
2023-04-10T18:35:24.453Z,75024.03
2023-04-10T18:45:28.976Z,75030.09
2023-04-10T18:55:34.352Z,75044.28
2023-04-10T19:05:39.875Z,75038.19
2023-04-10T19:15:46.569Z,75048.31
2023-04-10T19:25:58.824Z,75064.50
2023-04-10T19:36:01.115Z,75076.66
2023-04-10T19:46:04.415Z,75102.94
2023-04-10T19:56:07.000Z,75113.06
2023-04-10T20:06:14.402Z,75127.22
2023-04-10T20:16:18.905Z,75123.19
2023-04-10T20:26:26.271Z,75143.41
2023-04-10T20:36:36.891Z,75151.50
2023-04-10T20:46:42.868Z,75127.22
2023-04-10T20:56:50.350Z,75121.16
2023-04-10T21:06:53.993Z,75113.06
2023-04-10T21:17:00.809Z,75115.09
2023-04-10T21:27:06.207Z,75121.16
2023-04-10T21:37:10.322Z,75113.06
2023-04-10T21:47:14.983Z,75088.78
2023-04-10T21:57:18.603Z,75074.63
2023-04-10T22:07:26.260Z,74971.44
2023-04-10T22:17:32.641Z,75032.13
2023-04-10T22:27:36.494Z,75054.38
2023-04-10T22:37:38.730Z,75070.56
2023-04-10T22:47:40.865Z,75082.72
2023-04-10T22:57:52.104Z,75107.00
2023-04-10T23:07:58.443Z,75111.03
2023-04-10T23:18:05.809Z,75111.03
2023-04-10T23:28:08.043Z,75119.13
2023-04-10T23:38:10.593Z,75115.09
2023-04-10T23:48:18.358Z,75123.19
2023-04-10T23:58:21.572Z,75139.38
